createdAt,value
2018-04-08T00:00:49.540Z,11.70
2018-04-08T00:03:17.630Z,11.70
2018-04-08T00:05:46.078Z,11.70
2018-04-08T00:08:14.589Z,11.60
2018-04-08T00:10:42.726Z,11.60
2018-04-08T00:13:10.795Z,11.40
2018-04-08T00:15:39.018Z,11.40
2018-04-08T00:18:07.080Z,11.40
2018-04-08T00:20:35.146Z,11.40
2018-04-08T00:23:03.425Z,11.40
2018-04-08T00:25:33.129Z,11.10
2018-04-08T00:28:01.381Z,11.20
2018-04-08T00:30:29.584Z,11.10
2018-04-08T00:32:57.650Z,10.90
2018-04-08T00:35:25.784Z,10.90
2018-04-08T00:37:54.200Z,10.90
2018-04-08T00:40:22.275Z,10.90
2018-04-08T00:42:50.316Z,10.90
2018-04-08T00:45:19.540Z,10.90
2018-04-08T00:47:47.729Z,10.90
2018-04-08T00:50:15.911Z,10.80
2018-04-08T00:52:44.678Z,10.70
2018-04-08T00:55:12.874Z,10.60
2018-04-08T00:57:41.634Z,10.60
2018-04-08T01:00:09.612Z,10.60
2018-04-08T01:02:37.678Z,10.50
2018-04-08T01:05:06.169Z,10.50
2018-04-08T01:07:34.436Z,10.50
2018-04-08T01:10:02.710Z,10.50
2018-04-08T01:12:30.979Z,10.60
2018-04-08T01:14:59.060Z,10.60
2018-04-08T01:17:27.126Z,10.60
2018-04-08T01:19:55.299Z,10.40
2018-04-08T01:22:23.475Z,10.40
2018-04-08T01:24:51.954Z,10.50
2018-04-08T01:27:20.578Z,10.40
2018-04-08T01:29:48.716Z,10.30
2018-04-08T01:32:16.780Z,10.30
2018-04-08T01:34:45.160Z,10.20
2018-04-08T01:37:13.715Z,10.20
2018-04-08T01:39:41.900Z,10.10
2018-04-08T01:42:10.395Z,10.10
2018-04-08T01:44:38.647Z,10.00
2018-04-08T01:47:06.845Z,10.10
2018-04-08T01:49:34.914Z,10.10
2018-04-08T01:52:03.395Z,10.20
2018-04-08T01:54:31.665Z,10.20
2018-04-08T01:56:59.845Z,10.20
2018-04-08T01:59:28.020Z,10.20
2018-04-08T02:01:56.499Z,10.20
2018-04-08T02:04:24.809Z,10.20
2018-04-08T02:06:53.766Z,10.20
2018-04-08T02:09:22.245Z,10.20
2018-04-08T02:11:51.450Z,10.10
2018-04-08T02:14:19.900Z,10.10
2018-04-08T02:16:47.995Z,10.00
2018-04-08T02:19:16.253Z,9.90
2018-04-08T02:21:44.520Z,9.80
2018-04-08T02:24:12.824Z,9.80
2018-04-08T02:26:40.900Z,9.80
2018-04-08T02:29:09.041Z,9.80
2018-04-08T02:31:37.346Z,9.70
2018-04-08T02:34:05.660Z,9.60
2018-04-08T02:36:33.812Z,9.60
2018-04-08T02:39:03.052Z,9.60
2018-04-08T02:41:31.166Z,9.50
2018-04-08T02:43:59.401Z,9.60
2018-04-08T02:46:27.676Z,9.50
2018-04-08T02:48:55.997Z,9.40
2018-04-08T02:51:24.125Z,9.40
2018-04-08T02:53:52.647Z,9.30
2018-04-08T02:56:21.736Z,9.30
2018-04-08T02:58:50.115Z,9.30
2018-04-08T03:01:18.385Z,9.30
2018-04-08T03:03:46.565Z,9.30
2018-04-08T03:06:14.946Z,9.30
2018-04-08T03:08:43.430Z,9.20
2018-04-08T03:11:11.688Z,9.20
2018-04-08T03:13:39.961Z,9.10
2018-04-08T03:16:08.521Z,9.10
2018-04-08T03:18:36.746Z,9.10
2018-04-08T03:21:04.905Z,9.00
2018-04-08T03:23:33.245Z,9.00
2018-04-08T03:26:01.324Z,8.90
2018-04-08T03:28:29.400Z,8.90
2018-04-08T03:30:57.766Z,8.90
2018-04-08T03:33:25.880Z,8.90
2018-04-08T03:35:53.845Z,8.80
2018-04-08T03:38:21.916Z,8.80
2018-04-08T03:40:50.060Z,8.80
2018-04-08T03:43:18.259Z,8.80
2018-04-08T03:45:46.542Z,8.70
2018-04-08T03:48:14.895Z,8.70
2018-04-08T03:50:43.085Z,8.70
2018-04-08T03:53:11.471Z,8.70
2018-04-08T03:55:39.509Z,8.70
2018-04-08T03:58:07.924Z,8.70
2018-04-08T04:00:35.950Z,8.60
2018-04-08T04:03:04.055Z,8.60
2018-04-08T04:05:32.030Z,8.60
2018-04-08T04:08:00.096Z,8.60
2018-04-08T04:10:28.275Z,8.60
2018-04-08T04:12:56.601Z,8.60
2018-04-08T04:15:24.589Z,8.60
2018-04-08T04:17:52.585Z,8.70
2018-04-08T04:20:32.637Z,8.70
2018-04-08T04:23:12.380Z,8.70
2018-04-08T04:25:52.946Z,8.70
2018-04-08T04:28:23.160Z,8.70
2018-04-08T04:30:51.135Z,8.60
2018-04-08T04:33:19.424Z,8.60
2018-04-08T04:35:47.685Z,8.70
2018-04-08T04:38:16.136Z,8.60
2018-04-08T04:40:44.644Z,8.70
2018-04-08T04:43:12.719Z,8.70
2018-04-08T04:45:40.695Z,8.80
2018-04-08T04:48:09.165Z,8.80
2018-04-08T04:50:37.140Z,9.00
2018-04-08T04:53:05.280Z,9.00
2018-04-08T04:55:33.602Z,9.00
2018-04-08T04:58:01.660Z,9.20
2018-04-08T05:00:29.685Z,9.20
2018-04-08T05:02:57.800Z,9.20
2018-04-08T05:05:25.841Z,9.30
2018-04-08T05:07:54.251Z,9.20
2018-04-08T05:10:22.408Z,9.20
2018-04-08T05:12:50.594Z,9.20
2018-04-08T05:15:19.044Z,9.20
2018-04-08T05:17:47.146Z,9.30
2018-04-08T05:20:15.315Z,9.30
2018-04-08T05:22:43.658Z,9.40
2018-04-08T05:25:12.385Z,9.50
2018-04-08T05:27:40.688Z,9.60
2018-04-08T05:30:09.297Z,9.80
2018-04-08T05:32:37.819Z,9.80
2018-04-08T05:35:06.210Z,10.00
2018-04-08T05:37:34.849Z,10.20
2018-04-08T05:40:03.365Z,10.40
2018-04-08T05:42:31.705Z,10.60
2018-04-08T05:44:59.710Z,10.80
2018-04-08T05:47:28.074Z,10.90
2018-04-08T05:49:56.385Z,11.10
2018-04-08T05:52:24.644Z,11.30
2018-04-08T05:54:52.886Z,11.50
2018-04-08T05:57:20.990Z,11.80
2018-04-08T05:59:49.160Z,12.10
2018-04-08T06:02:17.241Z,12.30
2018-04-08T06:04:45.399Z,12.50
2018-04-08T06:07:13.376Z,12.80
2018-04-08T06:09:41.344Z,13.10
2018-04-08T06:12:09.319Z,13.40
2018-04-08T06:14:37.696Z,13.60
2018-04-08T06:17:05.765Z,13.90
2018-04-08T06:19:33.935Z,14.10
2018-04-08T06:22:02.116Z,14.50
2018-04-08T06:24:30.485Z,14.90
2018-04-08T06:26:58.658Z,15.50
2018-04-08T06:29:26.631Z,15.80
2018-04-08T06:31:54.804Z,16.10
2018-04-08T06:34:22.974Z,16.30
2018-04-08T06:36:50.939Z,16.80
2018-04-08T06:39:18.989Z,17.20
2018-04-08T06:41:47.204Z,17.30
2018-04-08T06:44:15.465Z,17.70
2018-04-08T06:46:43.335Z,18.20
2018-04-08T06:49:11.492Z,18.70
2018-04-08T06:51:39.676Z,18.50
2018-04-08T06:54:07.710Z,18.80
2018-04-08T06:56:35.760Z,18.70
2018-04-08T06:59:04.210Z,18.50
2018-04-08T07:01:32.372Z,18.40
2018-04-08T07:04:00.340Z,18.60
2018-04-08T07:06:28.509Z,18.80
2018-04-08T07:08:56.784Z,18.80
2018-04-08T07:11:24.655Z,18.80
2018-04-08T07:13:52.717Z,18.80
2018-04-08T07:16:20.691Z,18.80
2018-04-08T07:18:48.561Z,19.10
2018-04-08T07:21:16.626Z,19.60
2018-04-08T07:23:44.587Z,20.00
2018-04-08T07:26:12.669Z,20.10
2018-04-08T07:28:41.184Z,19.80
2018-04-08T07:31:10.036Z,19.70
2018-04-08T07:33:38.417Z,19.70
2018-04-08T07:36:06.703Z,19.60
2018-04-08T07:38:34.659Z,19.60
2018-04-08T07:41:02.892Z,19.50
2018-04-08T07:43:30.907Z,19.80
2018-04-08T07:45:58.974Z,20.40
2018-04-08T07:48:27.241Z,20.30
2018-04-08T07:50:55.219Z,20.80
2018-04-08T07:53:23.290Z,21.60
2018-04-08T07:55:51.130Z,22.10
2018-04-08T07:58:19.434Z,22.30
2018-04-08T08:00:47.301Z,22.10
2018-04-08T08:03:15.456Z,22.50
2018-04-08T08:05:43.446Z,23.00
2018-04-08T08:08:11.408Z,22.80
2018-04-08T08:10:39.288Z,22.50
2018-04-08T08:13:07.672Z,22.20
2018-04-08T08:15:36.851Z,21.80
2018-04-08T08:18:04.931Z,21.80
2018-04-08T08:20:33.371Z,21.40
2018-04-08T08:23:01.511Z,21.30
2018-04-08T08:25:32.931Z,21.50
2018-04-08T08:28:01.512Z,21.70
2018-04-08T08:30:29.792Z,22.20
2018-04-08T08:32:57.852Z,22.50
2018-04-08T08:35:26.151Z,23.30
2018-04-08T08:37:55.092Z,24.10
2018-04-08T08:40:24.035Z,24.00
2018-04-08T08:42:52.811Z,23.30
2018-04-08T08:45:21.491Z,23.30
2018-04-08T08:47:49.852Z,22.70
2018-04-08T08:50:18.331Z,22.30
2018-04-08T08:52:46.411Z,22.60
2018-04-08T08:55:14.591Z,23.30
2018-04-08T08:57:43.852Z,23.60
2018-04-08T09:00:19.218Z,23.60
2018-04-08T09:02:47.411Z,23.70
2018-04-08T09:05:15.821Z,24.20
2018-04-08T09:07:44.791Z,24.90
2018-04-08T09:10:14.091Z,24.90
2018-04-08T09:12:43.692Z,24.90
2018-04-08T09:15:12.032Z,24.80
2018-04-08T09:17:40.351Z,24.00
2018-04-08T09:20:11.293Z,23.90
2018-04-08T09:22:54.311Z,24.30
2018-04-08T09:25:24.212Z,24.50
2018-04-08T09:27:52.711Z,24.40
2018-04-08T09:30:21.695Z,23.30
2018-04-08T09:32:49.871Z,23.20
2018-04-08T09:35:17.932Z,23.90
2018-04-08T09:37:46.111Z,24.00
2018-04-08T09:40:14.412Z,24.30
2018-04-08T09:42:43.552Z,25.20
2018-04-08T09:45:11.871Z,25.20
2018-04-08T09:47:41.142Z,24.50
2018-04-08T09:50:09.330Z,24.50
2018-04-08T09:52:37.514Z,24.70
2018-04-08T09:55:06.629Z,23.80
2018-04-08T09:57:38.571Z,23.70
2018-04-08T10:00:07.752Z,24.90
2018-04-08T10:02:36.331Z,24.90
2018-04-08T10:05:04.652Z,25.90
2018-04-08T10:07:34.012Z,26.20
2018-04-08T10:10:02.392Z,26.20
2018-04-08T10:12:30.772Z,25.80
2018-04-08T10:14:59.272Z,26.10
2018-04-08T10:17:28.132Z,26.50
2018-04-08T10:19:57.476Z,26.50
2018-04-08T10:22:25.832Z,25.80
2018-04-08T10:24:54.131Z,25.00
2018-04-08T10:27:23.092Z,25.20
2018-04-08T10:29:51.452Z,25.20
2018-04-08T10:32:20.372Z,25.70
2018-04-08T10:34:49.360Z,26.00
2018-04-08T10:37:17.731Z,25.90
2018-04-08T10:42:55.272Z,25.20
2018-04-08T10:45:34.172Z,25.20
2018-04-08T10:57:14.871Z,27.20
2018-04-08T10:59:43.163Z,27.20
2018-04-08T11:02:12.375Z,25.60
2018-04-08T11:04:41.176Z,25.50
2018-04-08T11:07:10.119Z,26.50
2018-04-08T11:09:40.056Z,26.50
2018-04-08T11:12:11.511Z,27.00
2018-04-08T11:14:40.597Z,28.20
2018-04-08T11:17:09.562Z,28.10
2018-04-08T11:19:40.359Z,28.70
2018-04-08T11:22:09.297Z,29.00
2018-04-08T11:24:37.951Z,29.50
2018-04-08T11:27:14.991Z,29.10
2018-04-08T11:29:47.376Z,27.00
2018-04-08T11:32:16.767Z,27.00
2018-04-08T11:34:47.920Z,27.60
2018-04-08T11:37:23.951Z,28.30
2018-04-08T11:39:54.767Z,29.00
2018-04-08T11:42:30.863Z,29.00
2018-04-08T11:45:02.176Z,29.00
2018-04-08T11:47:31.151Z,28.60
2018-04-08T11:49:59.713Z,28.50
2018-04-08T11:52:28.901Z,27.60
2018-04-08T11:54:58.357Z,27.70
2018-04-08T11:57:27.167Z,27.70
2018-04-08T11:59:55.791Z,27.90
2018-04-08T12:02:24.248Z,28.40
2018-04-08T12:04:53.719Z,28.30
2018-04-08T12:07:22.071Z,28.30
2018-04-08T12:09:50.807Z,27.50
2018-04-08T12:12:19.920Z,27.30
2018-04-08T12:14:48.895Z,27.20
2018-04-08T12:17:17.392Z,27.40
2018-04-08T12:19:46.479Z,27.60
2018-04-08T12:22:15.599Z,27.60
2018-04-08T12:24:43.954Z,27.60
2018-04-08T12:27:13.351Z,27.60
2018-04-08T12:29:42.703Z,27.60
2018-04-08T12:32:11.031Z,27.20
2018-04-08T12:34:40.679Z,26.00
2018-04-08T12:37:09.409Z,25.30
2018-04-08T12:39:37.599Z,24.80
2018-04-08T12:42:06.495Z,24.00
2018-04-08T12:44:35.807Z,23.60
2018-04-08T12:47:04.767Z,23.20
2018-04-08T12:49:32.950Z,23.20
2018-04-08T12:52:02.759Z,23.00
2018-04-08T12:54:31.958Z,23.00
2018-04-08T12:57:00.135Z,23.00
2018-04-08T12:59:29.512Z,24.10
2018-04-08T13:01:58.050Z,24.10
2018-04-08T13:04:27.831Z,24.00
2018-04-08T13:06:58.246Z,23.40
2018-04-08T13:09:26.615Z,23.40
2018-04-08T13:11:54.935Z,23.10
2018-04-08T13:14:23.999Z,22.50
2018-04-08T13:16:53.271Z,22.40
2018-04-08T13:19:22.567Z,22.20
2018-04-08T13:21:53.447Z,22.00
2018-04-08T13:24:22.631Z,21.90
2018-04-08T13:26:51.110Z,22.00
2018-04-08T13:29:19.854Z,21.90
2018-04-08T13:31:50.659Z,22.00
2018-04-08T13:34:19.535Z,21.90
2018-04-08T13:36:49.951Z,22.00
2018-04-08T13:39:22.015Z,21.90
2018-04-08T13:41:52.959Z,22.20
2018-04-08T13:47:19.891Z,22.20
2018-04-08T13:49:53.871Z,22.20
2018-04-08T13:52:22.886Z,22.20
2018-04-08T13:54:51.780Z,22.00
2018-04-08T13:57:21.444Z,21.90
2018-04-08T13:59:51.684Z,21.90
2018-04-08T14:02:22.263Z,21.90
2018-04-08T14:04:50.724Z,22.20
2018-04-08T14:07:20.068Z,22.20
2018-04-08T14:09:50.221Z,22.20
2018-04-08T14:12:18.820Z,22.30
2018-04-08T14:14:48.132Z,22.10
2018-04-08T14:17:17.295Z,21.90
2018-04-08T14:19:45.492Z,21.80
2018-04-08T14:22:16.052Z,21.90
2018-04-08T14:24:44.549Z,21.80
2018-04-08T14:27:12.990Z,21.90
2018-04-08T14:29:41.860Z,22.30
2018-04-08T14:32:10.231Z,22.20
2018-04-08T14:34:39.252Z,22.30
2018-04-08T14:37:08.885Z,22.80
2018-04-08T14:39:39.684Z,22.80
2018-04-08T14:55:14.372Z,23.60
2018-04-08T14:57:43.172Z,21.90
2018-04-08T15:00:11.572Z,21.90
2018-04-08T15:02:41.268Z,22.60
2018-04-08T15:05:11.382Z,22.60
2018-04-08T15:07:39.781Z,22.60
2018-04-08T15:10:08.771Z,22.40
2018-04-08T15:12:38.165Z,22.30
2018-04-08T15:15:07.350Z,22.20
2018-04-08T15:17:36.051Z,22.10
2018-04-08T15:20:05.252Z,22.00
2018-04-08T15:22:34.740Z,22.00
2018-04-08T15:25:03.508Z,22.00
2018-04-08T15:27:33.700Z,22.20
2018-04-08T15:30:01.926Z,22.40
2018-04-08T15:32:31.124Z,22.20
2018-04-08T15:34:59.412Z,22.20
2018-04-08T15:37:28.473Z,21.90
2018-04-08T15:39:56.868Z,21.80
2018-04-08T15:42:25.132Z,21.90
2018-04-08T15:44:53.830Z,21.80
2018-04-08T15:47:21.988Z,21.70
2018-04-08T15:49:50.292Z,21.60
2018-04-08T15:52:19.699Z,21.70
2018-04-08T15:54:49.092Z,21.80
2018-04-08T15:57:18.180Z,21.90
2018-04-08T15:59:47.189Z,21.90
2018-04-08T16:02:16.389Z,21.90
2018-04-08T16:04:45.572Z,22.00
2018-04-08T16:07:15.060Z,21.80
2018-04-08T16:09:44.868Z,21.80
2018-04-08T16:12:12.965Z,21.60
2018-04-08T16:14:42.569Z,21.50
2018-04-08T16:17:11.492Z,21.40
2018-04-08T16:19:41.172Z,21.40
2018-04-08T16:22:11.140Z,21.40
2018-04-08T16:24:40.692Z,21.40
2018-04-08T16:27:09.380Z,21.40
2018-04-08T16:29:38.964Z,21.40
2018-04-08T16:32:07.492Z,21.40
2018-04-08T16:34:37.412Z,21.10
2018-04-08T16:37:07.981Z,21.00
2018-04-08T16:39:37.621Z,20.90
2018-04-08T16:42:06.084Z,20.80
2018-04-08T16:44:37.300Z,20.70
2018-04-08T16:47:06.814Z,20.60
2018-04-08T16:49:36.900Z,20.60
2018-04-08T16:52:05.220Z,20.50
2018-04-08T16:54:35.141Z,20.50
2018-04-08T16:57:04.331Z,20.40
2018-04-08T16:59:33.972Z,20.40
2018-04-08T17:02:03.332Z,20.30
2018-04-08T17:04:32.900Z,20.20
2018-04-08T17:07:01.332Z,20.10
2018-04-08T17:09:29.712Z,20.10
2018-04-08T17:11:57.916Z,20.10
2018-04-08T17:14:28.133Z,20.00
2018-04-08T17:16:56.567Z,20.00
2018-04-08T17:19:24.788Z,19.90
2018-04-08T17:21:54.085Z,19.70
2018-04-08T17:24:23.068Z,19.70
2018-04-08T17:26:54.932Z,19.70
2018-04-08T17:29:23.908Z,19.70
2018-04-08T17:31:53.125Z,19.70
2018-04-08T17:34:22.500Z,19.50
2018-04-08T17:36:51.093Z,19.50
2018-04-08T17:39:19.989Z,19.50
2018-04-08T17:41:49.188Z,19.30
2018-04-08T17:44:17.668Z,19.30
2018-04-08T17:46:46.420Z,19.30
2018-04-08T17:49:15.668Z,19.20
2018-04-08T17:51:46.662Z,19.10
2018-04-08T17:54:20.900Z,19.00
2018-04-08T17:56:56.348Z,19.00
2018-04-08T17:59:26.071Z,19.00
2018-04-08T18:01:58.020Z,18.90
2018-04-08T18:04:32.294Z,18.80
2018-04-08T18:07:02.324Z,18.80
2018-04-08T18:09:31.524Z,18.70
2018-04-08T18:12:02.185Z,18.60
2018-04-08T18:14:36.804Z,18.70
2018-04-08T18:17:06.325Z,18.60
2018-04-08T18:19:40.725Z,18.60
2018-04-08T18:22:18.629Z,18.60
2018-04-08T18:24:55.300Z,18.50
2018-04-08T18:27:23.892Z,18.50
2018-04-08T18:29:52.483Z,18.50
2018-04-08T18:32:22.664Z,18.50
2018-04-08T18:34:52.180Z,18.50
2018-04-08T18:37:24.421Z,18.40
2018-04-08T18:40:01.781Z,18.40
2018-04-08T18:42:31.780Z,18.40
2018-04-08T18:45:02.036Z,18.40
2018-04-08T18:47:34.903Z,18.40
2018-04-08T18:50:05.940Z,18.20
2018-04-08T18:52:37.375Z,18.20
2018-04-08T18:55:06.676Z,18.20
2018-04-08T18:57:36.100Z,18.10
2018-04-08T19:00:05.062Z,18.10
2018-04-08T19:02:33.771Z,18.10
2018-04-08T19:05:03.396Z,18.00
2018-04-08T19:07:33.573Z,17.90
2018-04-08T19:26:22.676Z,17.10
2018-04-08T19:28:51.303Z,17.10
2018-04-08T19:31:22.660Z,17.10
2018-04-08T19:33:55.205Z,17.20
2018-04-08T19:36:28.245Z,17.20
2018-04-08T19:38:59.965Z,17.10
2018-04-08T19:41:30.783Z,17.10
2018-04-08T19:44:09.076Z,17.10
2018-04-08T19:46:39.620Z,17.10
2018-04-08T19:49:14.980Z,17.20
2018-04-08T19:51:45.941Z,17.10
2018-04-08T19:54:18.325Z,17.10
2018-04-08T19:56:49.684Z,17.00
2018-04-08T20:01:57.893Z,16.70
2018-04-08T20:04:27.193Z,16.70
2018-04-08T20:06:56.596Z,16.70
2018-04-08T20:09:26.463Z,16.70
2018-04-08T20:11:58.021Z,16.70
2018-04-08T20:14:27.396Z,16.60
2018-04-08T20:16:58.404Z,16.60
2018-04-08T20:19:34.788Z,16.60
2018-04-08T20:22:05.413Z,16.50
2018-04-08T20:24:36.338Z,16.50
2018-04-08T20:27:05.824Z,16.50
2018-04-08T20:29:36.421Z,16.50
2018-04-08T20:32:05.476Z,16.50
2018-04-08T20:34:34.964Z,16.40
2018-04-08T20:37:03.458Z,16.40
2018-04-08T20:39:31.759Z,16.30
2018-04-08T20:42:00.595Z,16.40
2018-04-08T20:44:28.786Z,16.30
2018-04-08T20:46:56.964Z,16.30
2018-04-08T20:49:25.239Z,16.20
2018-04-08T20:51:53.206Z,16.20
2018-04-08T20:54:21.585Z,16.20
2018-04-08T20:56:49.775Z,16.10
2018-04-08T20:59:19.033Z,16.00
2018-04-08T21:01:47.333Z,15.90
2018-04-08T21:04:15.404Z,15.90
2018-04-08T21:06:43.811Z,15.80
2018-04-08T21:09:12.776Z,15.70
2018-04-08T21:11:41.670Z,15.70
2018-04-08T21:14:09.936Z,15.50
2018-04-08T21:16:38.419Z,15.50
2018-04-08T21:19:06.470Z,15.30
2018-04-08T21:21:34.867Z,15.50
2018-04-08T21:24:03.329Z,15.50
2018-04-08T21:26:31.829Z,15.50
2018-04-08T21:29:00.208Z,15.50
2018-04-08T21:31:28.790Z,15.40
2018-04-08T21:33:57.338Z,15.50
2018-04-08T21:36:25.587Z,15.40
2018-04-08T21:38:53.732Z,15.40
2018-04-08T21:41:21.767Z,15.50
2018-04-08T21:43:49.966Z,15.50
2018-04-08T21:46:18.035Z,15.50
2018-04-08T21:48:47.140Z,15.50
2018-04-08T21:51:15.099Z,15.50
2018-04-08T21:53:43.178Z,15.60
2018-04-08T21:56:11.248Z,15.60
2018-04-08T21:58:39.104Z,15.60
2018-04-08T22:01:07.387Z,15.50
2018-04-08T22:03:35.554Z,15.50
2018-04-08T22:06:04.040Z,15.40
2018-04-08T22:08:32.223Z,15.20
2018-04-08T22:11:00.491Z,15.10
2018-04-08T22:13:28.871Z,15.10
2018-04-08T22:15:57.254Z,15.00
2018-04-08T22:18:25.454Z,14.90
2018-04-08T22:20:54.510Z,14.60
2018-04-08T22:23:22.567Z,14.60
2018-04-08T22:25:51.578Z,14.50
2018-04-08T22:28:20.292Z,14.40
2018-04-08T22:30:49.046Z,14.30
2018-04-08T22:33:17.238Z,14.30
2018-04-08T22:35:46.325Z,14.20
2018-04-08T22:38:14.996Z,14.20
2018-04-08T22:40:43.481Z,14.20
2018-04-08T22:43:11.665Z,14.30
2018-04-08T22:45:39.805Z,14.20
2018-04-08T22:48:07.883Z,14.20
2018-04-08T22:50:36.278Z,14.10
2018-04-08T22:53:04.349Z,14.10
2018-04-08T22:55:32.318Z,14.10
2018-04-08T22:58:00.695Z,14.10
2018-04-08T23:00:29.219Z,14.10
2018-04-08T23:02:57.460Z,14.20
2018-04-08T23:05:25.725Z,14.20
2018-04-08T23:07:54.293Z,14.10
2018-04-08T23:10:22.775Z,14.10
2018-04-08T23:12:50.945Z,14.10
2018-04-08T23:15:19.142Z,14.10
2018-04-08T23:17:47.516Z,14.00
2018-04-08T23:20:15.816Z,14.00
2018-04-08T23:22:44.176Z,14.00
2018-04-08T23:25:12.427Z,14.00
2018-04-08T23:27:40.720Z,14.00
2018-04-08T23:30:08.996Z,13.90
2018-04-08T23:32:37.303Z,13.90
2018-04-08T23:35:06.693Z,13.90
2018-04-08T23:37:35.670Z,13.70
2018-04-08T23:40:03.945Z,13.70
2018-04-08T23:42:32.115Z,13.60
2018-04-08T23:45:00.515Z,13.50
2018-04-08T23:47:29.398Z,13.30
2018-04-08T23:49:57.636Z,13.30
2018-04-08T23:52:25.730Z,13.40
2018-04-08T23:54:54.191Z,13.30
2018-04-08T23:57:22.488Z,13.30
2018-04-08T23:59:51.280Z,13.30
